CW9773 Weather Reports


Display with metric or nautical units.
time (UTC)temp
F
wind
direction
speed
MPH
gust
MPH
rain 1hr
in
rain 24hr
in
rain mn
in
humidity
%
barometer
mb
20190325223158 49 334 0.0 0.0 0.15 0.33 0.33 92 1012.1
20190325221536 49 334 1.0 4.0 0.06 0.23 0.24 92 1011.9
20190325220038 49 334 0.0 0.0 0.03 0.20 0.20 91 1011.5
20190325214505 50 334 0.0 0.0 0.03 0.19 0.19 91 1011.7
20190325213122 50 334 0.0 0.0 0.03 0.18 0.18 91 1011.8
20190325211626 50 334 0.0 0.0 0.03 0.17 0.17 91 1011.6
20190325210038 51 334 0.0 2.0 0.06 0.17 0.17 91 1011.7
20190325204723 51 334 0.0 1.0 0.07 0.16 0.16 92 1011.7
20190325204501 51 334 0.0 1.0 0.07 0.16 0.16 92 1011.8
20190325203127 51 334 0.0 0.0 0.07 0.15 0.15 92 1012.1
20190325201610 51 334 0.0 2.0 0.06 0.14 0.14 91 1012.2
20190325200034 51 334 0.0 2.0 0.04 0.11 0.11 91 1012.2
20190325194648 52 334 0.0 1.0 0.04 0.09 0.10 90 1012.3
20190325193022 52 334 0.0 2.0 0.04 0.08 0.08 88 1012.2
20190325191657 52 334 0.0 1.0 0.05 0.08 0.08 89 1012.4
20190325190137 52 334 0.0 1.0 0.04 0.07 0.07 88 1012.6
20190325184515 53 334 0.0 0.0 0.03 0.05 0.05 88 1012.9
20190325183110 53 334 0.0 1.0 0.03 0.04 0.04 87 1012.8
20190325181636 52 334 0.0 3.0 0.03 0.03 0.03 87 1013.1
20190325181507 52 334 0.0 3.0 0.03 0.03 0.03 87 1013.1
20190325180033 52 334 0.0 0.0 0.03 0.03 0.03 81 1013.1
20190325174522 54 334 0.0 2.0 0.02 0.02 0.02 80 1013.3
20190325173041 54 334 0.0 1.0 0.01 0.01 0.01 76 1013.0
20190325171725 55 334 0.0 1.0 0.00 0.00 0.00 73 1013.2
20190325171519 55 334 0.0 1.0 0.00 0.00 0.00 72 1013.1
20190325170126 54 334 0.0 1.0 0.00 0.00 0.00 73 1013.2
20190325164718 55 334 0.0 1.0 0.00 0.00 0.00 66 1013.5
20190325163053 56 334 0.0 3.0 0.00 0.00 0.00 57 1013.7
20190325161513 56 300 0.0 2.0 0.00 0.00 0.00 57 1013.7
20190325160027 56 5 1.0 3.0 0.00 0.00 0.00 58 1013.7
20190325154655 54 355 0.0 3.0 0.00 0.00 0.00 60 1014.0
20190325154503 54 355 0.0 3.0 0.00 0.00 0.00 60 1014.1
20190325153147 52 355 0.0 2.0 0.00 0.00 0.00 61 1014.2
20190325151540 52 349 1.0 3.0 0.00 0.00 0.00 61 1014.4
20190325150034 52 349 1.0 3.0 0.00 0.00 0.00 62 1014.2
20190325144508 51 348 3.0 4.0 0.00 0.00 0.00 62 1014.6
20190325143110 49 348 1.0 4.0 0.00 0.00 0.00 66 1014.7
20190325141655 49 348 1.0 4.0 0.00 0.00 0.00 67 1014.9
20190325141505 48 348 1.0 4.0 0.00 0.00 0.00 67 1014.9
20190325140027 48 348 0.0 4.0 0.00 0.00 0.00 67 1014.9
20190325134618 48 348 0.0 4.0 0.00 0.00 0.00 68 1015.1
20190325133022 47 316 2.0 4.0 0.00 0.00 0.00 70 1015.2
20190325131650 44 332 3.0 5.0 0.00 0.00 0.00 75 1015.1
20190325130135 42 232 0.0 4.0 0.00 0.00 0.00 79 1015.3
20190325124603 41 311 0.0 5.0 0.00 0.00 0.00 82 1015.3
20190325123126 39 355 1.0 2.0 0.00 0.00 0.00 84 1015.7
20190325121652 39 355 0.0 3.0 0.00 0.00 0.00 83 1015.7
20190325120145 39 355 0.0 3.0 0.00 0.00 0.00 82 1015.4
20190325114550 38 355 0.0 3.0 0.00 0.00 0.00 83 1015.3
20190325113010 39 346 0.0 2.0 0.00 0.00 0.00 82 1015.5
20190325111735 39 345 0.0 4.0 0.00 0.00 0.00 81 1015.4
20190325110020 39 342 0.0 2.0 0.00 0.00 0.00 81 1015.6
20190325104628 39 342 2.0 5.0 0.00 0.00 0.00 81 1015.8
20190325103029 39 82 2.0 4.0 0.00 0.00 0.00 80 1015.8
20190325101647 39 24 0.0 2.0 0.00 0.00 0.00 79 1015.7
20190325100218 39 24 0.0 3.0 0.00 0.00 0.00 78 1015.8
20190325100003 39 24 0.0 3.0 0.00 0.00 0.00 78 1015.8
20190325094621 40 24 0.0 3.0 0.00 0.00 0.00 77 1016.0
20190325093132 40 24 0.0 3.0 0.00 0.00 0.00 77 1016.1
20190325091548 41 12 1.0 3.0 0.00 0.00 0.00 75 1016.2
20190325090039 41 15 0.0 4.0 0.00 0.00 0.00 75 1016.5
20190325084739 42 67 0.0 3.0 0.00 0.00 0.00 74 1016.5
20190325084503 42 36 0.0 3.0 0.00 0.00 0.00 74 1016.6
20190325083110 41 122 1.0 5.0 0.00 0.00 0.00 74 1016.7
20190325081711 41 147 0.0 3.0 0.00 0.00 0.00 75 1017.0
20190325081501 41 147 0.0 3.0 0.00 0.00 0.00 75 1017.0
20190325080026 41 147 0.0 3.0 0.00 0.00 0.00 74 1017.4
20190325074519 42 147 0.0 3.0 0.00 0.00 0.00 73 1017.7
20190325073129 42 175 1.0 3.0 0.00 0.00 0.00 72 1017.9
20190325071538 42 175 0.0 3.0 0.00 0.00 0.00 71 1018.2
20190325070028 43 175 1.0 4.0 0.00 0.00 0.00 70 1018.1
20190325064642 43 149 1.0 3.0 0.00 0.00 0.00 69 1018.4
20190325063015 44 149 0.0 3.0 0.00 0.00 0.00 69 1018.5
20190325061618 44 149 1.0 2.0 0.00 0.00 0.00 67 1018.6
20190325060134 45 149 0.0 3.0 0.00 0.00 0.00 66 1018.9
20190325054517 46 149 1.0 3.0 0.00 0.00 0.00 64 1019.0
20190325053203 46 149 0.0 3.0 0.00 0.00 0.00 63 1018.8
20190325051507 47 149 0.0 5.0 0.00 0.00 0.00 62 1019.2
20190325050038 48 149 0.0 2.0 0.00 0.00 0.00 60 1019.5
20190325044551 48 149 2.0 3.0 0.00 0.00 0.00 60 1019.5
20190325043205 49 149 0.0 1.0 0.00 0.00 0.00 59 1019.5
20190325041621 49 149 0.0 2.0 0.00 0.00 0.00 59 1019.8
20190325040057 49 149 1.0 3.0 0.00 0.00 0.00 58 1019.8
20190325034538 50 149 0.0 2.0 0.00 0.00 0.00 58 1020.0
20190325033116 51 149 0.0 1.0 0.00 0.00 0.00 55 1020.1
20190325031536 52 149 0.0 5.0 0.00 0.00 0.00 54 1020.0
20190325030009 53 149 0.0 1.0 0.00 0.00 0.00 51 1020.2
20190325024612 53 149 0.0 1.0 0.00 0.00 0.00 51 1020.4
20190325023023 54 149 0.0 0.0 0.00 0.00 0.00 49 1020.3
20190325021707 54 149 0.0 1.0 0.00 0.00 0.00 50 1020.5
20190325020101 55 149 0.0 1.0 0.00 0.00 0.00 52 1020.6
20190325014609 56 149 0.0 1.0 0.00 0.00 0.00 48 1020.6
20190325013021 56 149 0.0 0.0 0.00 0.00 0.00 48 1020.6
20190325011626 57 149 0.0 0.0 0.00 0.00 0.00 47 1020.1
20190325010146 57 149 0.0 0.0 0.00 0.00 0.00 46 1020.2
20190325004541 57 149 0.0 0.0 0.00 0.00 0.00 45 1020.1
20190325003053 58 149 0.0 1.0 0.00 0.00 0.00 45 1019.7
20190325001516 58 149 0.0 1.0 0.00 0.00 0.00 45 1020.1
20190325000017 58 149 0.0 2.0 0.00 0.00 0.00 44 1020.1
20190324234610 59 149 0.0 1.0 0.00 0.00 0.00 44 1019.7
20190324233139 59 149 0.0 0.0 0.00 0.00 0.00 43 1019.7
20190324233003 59 149 0.0 0.0 0.00 0.00 0.00 43 1019.7
20190324231616 59 149 1.0 5.0 0.00 0.00 0.00 43 1019.6
20190324230052 60 150 0.0 6.0 0.00 0.00 0.00 42 1019.7
20190324224617 60 149 3.0 7.0 0.00 0.00 0.00 41 1019.6